sensor_id;sensor_type;location;lat;lon;timestamp;P1;durP1;ratioP1;P2;durP2;ratioP2
69085;SDS011;56186;59.144;37.936;2022-08-30T00:00:28;18.00;;;10.75;;
69085;SDS011;56186;59.144;37.936;2022-08-30T00:03:13;15.73;;;11.02;;
69085;SDS011;56186;59.144;37.936;2022-08-30T00:05:39;16.75;;;11.30;;
69085;SDS011;56186;59.144;37.936;2022-08-30T00:08:07;19.50;;;11.30;;
69085;SDS011;56186;59.144;37.936;2022-08-30T00:10:34;20.88;;;11.63;;
69085;SDS011;56186;59.144;37.936;2022-08-30T00:13:00;19.00;;;11.85;;
69085;SDS011;56186;59.144;37.936;2022-08-30T00:15:26;17.98;;;11.55;;
69085;SDS011;56186;59.144;37.936;2022-08-30T00:17:54;18.45;;;11.10;;
69085;SDS011;56186;59.144;37.936;2022-08-30T00:20:25;18.77;;;12.25;;
69085;SDS011;56186;59.144;37.936;2022-08-30T00:22:54;17.58;;;10.43;;
69085;SDS011;56186;59.144;37.936;2022-08-30T00:25:20;15.80;;;10.63;;
69085;SDS011;56186;59.144;37.936;2022-08-30T00:27:47;21.15;;;11.27;;
69085;SDS011;56186;59.144;37.936;2022-08-30T00:30:13;17.45;;;10.82;;
69085;SDS011;56186;59.144;37.936;2022-08-30T00:32:41;17.77;;;11.57;;
69085;SDS011;56186;59.144;37.936;2022-08-30T00:35:08;18.83;;;10.77;;
69085;SDS011;56186;59.144;37.936;2022-08-30T00:37:36;16.48;;;10.45;;
69085;SDS011;56186;59.144;37.936;2022-08-30T00:40:02;18.75;;;11.10;;
69085;SDS011;56186;59.144;37.936;2022-08-30T00:42:30;16.50;;;11.65;;
69085;SDS011;56186;59.144;37.936;2022-08-30T00:44:58;20.38;;;12.20;;
69085;SDS011;56186;59.144;37.936;2022-08-30T00:47:25;15.73;;;9.82;;
69085;SDS011;56186;59.144;37.936;2022-08-30T00:49:52;15.70;;;10.68;;
69085;SDS011;56186;59.144;37.936;2022-08-30T00:52:21;16.92;;;10.63;;
69085;SDS011;56186;59.144;37.936;2022-08-30T00:54:48;14.57;;;10.52;;
69085;SDS011;56186;59.144;37.936;2022-08-30T00:57:17;17.08;;;10.93;;
69085;SDS011;56186;59.144;37.936;2022-08-30T00:59:44;17.60;;;11.85;;
69085;SDS011;56186;59.144;37.936;2022-08-30T01:02:15;17.67;;;11.50;;
69085;SDS011;56186;59.144;37.936;2022-08-30T01:04:45;17.20;;;11.05;;
69085;SDS011;56186;59.144;37.936;2022-08-30T01:07:12;17.08;;;11.88;;
69085;SDS011;56186;59.144;37.936;2022-08-30T01:09:39;18.02;;;11.82;;
69085;SDS011;56186;59.144;37.936;2022-08-30T01:12:05;17.02;;;11.07;;
69085;SDS011;56186;59.144;37.936;2022-08-30T01:14:31;16.50;;;10.75;;
69085;SDS011;56186;59.144;37.936;2022-08-30T01:16:58;15.75;;;10.52;;
69085;SDS011;56186;59.144;37.936;2022-08-30T01:19:35;14.63;;;10.05;;
69085;SDS011;56186;59.144;37.936;2022-08-30T01:22:27;15.88;;;10.15;;
69085;SDS011;56186;59.144;37.936;2022-08-30T01:24:55;15.60;;;9.80;;
69085;SDS011;56186;59.144;37.936;2022-08-30T01:27:24;16.42;;;10.13;;
69085;SDS011;56186;59.144;37.936;2022-08-30T01:29:52;14.75;;;9.60;;
69085;SDS011;56186;59.144;37.936;2022-08-30T01:32:20;16.85;;;10.38;;
69085;SDS011;56186;59.144;37.936;2022-08-30T01:34:49;15.15;;;10.50;;
69085;SDS011;56186;59.144;37.936;2022-08-30T01:37:20;14.98;;;9.93;;
69085;SDS011;56186;59.144;37.936;2022-08-30T01:39:51;16.45;;;9.90;;
69085;SDS011;56186;59.144;37.936;2022-08-30T01:42:18;16.10;;;10.10;;
69085;SDS011;56186;59.144;37.936;2022-08-30T01:44:44;15.50;;;9.48;;
69085;SDS011;56186;59.144;37.936;2022-08-30T01:47:12;13.45;;;9.02;;
69085;SDS011;56186;59.144;37.936;2022-08-30T01:49:38;15.02;;;9.88;;
69085;SDS011;56186;59.144;37.936;2022-08-30T01:52:05;15.32;;;10.20;;
69085;SDS011;56186;59.144;37.936;2022-08-30T01:54:32;15.20;;;9.35;;
69085;SDS011;56186;59.144;37.936;2022-08-30T01:57:00;15.70;;;9.95;;
69085;SDS011;56186;59.144;37.936;2022-08-30T01:59:27;14.23;;;9.18;;
69085;SDS011;56186;59.144;37.936;2022-08-30T02:01:53;14.63;;;9.52;;
69085;SDS011;56186;59.144;37.936;2022-08-30T02:04:19;16.23;;;9.23;;
69085;SDS011;56186;59.144;37.936;2022-08-30T02:06:45;13.35;;;8.77;;
69085;SDS011;56186;59.144;37.936;2022-08-30T02:09:12;14.30;;;9.32;;
69085;SDS011;56186;59.144;37.936;2022-08-30T02:11:38;14.30;;;8.80;;
69085;SDS011;56186;59.144;37.936;2022-08-30T02:14:04;14.52;;;8.80;;
69085;SDS011;56186;59.144;37.936;2022-08-30T02:16:31;15.98;;;8.70;;
69085;SDS011;56186;59.144;37.936;2022-08-30T02:18:57;13.35;;;9.02;;
69085;SDS011;56186;59.144;37.936;2022-08-30T02:21:24;15.75;;;8.90;;
69085;SDS011;56186;59.144;37.936;2022-08-30T02:23:52;13.25;;;8.35;;
69085;SDS011;56186;59.144;37.936;2022-08-30T02:26:19;13.27;;;8.55;;
69085;SDS011;56186;59.144;37.936;2022-08-30T02:28:46;14.30;;;9.00;;
69085;SDS011;56186;59.144;37.936;2022-08-30T02:31:13;14.00;;;8.23;;
69085;SDS011;56186;59.144;37.936;2022-08-30T02:33:39;13.48;;;8.75;;
69085;SDS011;56186;59.144;37.936;2022-08-30T02:36:05;14.07;;;8.35;;
69085;SDS011;56186;59.144;37.936;2022-08-30T02:38:32;11.63;;;7.90;;
69085;SDS011;56186;59.144;37.936;2022-08-30T02:40:59;13.82;;;8.52;;
69085;SDS011;56186;59.144;37.936;2022-08-30T02:43:25;12.90;;;8.20;;
69085;SDS011;56186;59.144;37.936;2022-08-30T02:45:51;13.65;;;8.32;;
69085;SDS011;56186;59.144;37.936;2022-08-30T02:48:18;12.25;;;8.18;;
69085;SDS011;56186;59.144;37.936;2022-08-30T02:50:45;13.50;;;7.70;;
69085;SDS011;56186;59.144;37.936;2022-08-30T02:53:13;13.55;;;7.90;;
69085;SDS011;56186;59.144;37.936;2022-08-30T02:55:40;13.88;;;8.30;;
69085;SDS011;56186;59.144;37.936;2022-08-30T02:58:06;12.98;;;8.50;;
69085;SDS011;56186;59.144;37.936;2022-08-30T03:00:33;13.93;;;8.32;;
69085;SDS011;56186;59.144;37.936;2022-08-30T03:02:59;13.93;;;8.48;;
69085;SDS011;56186;59.144;37.936;2022-08-30T03:05:29;11.88;;;8.15;;
69085;SDS011;56186;59.144;37.936;2022-08-30T03:07:56;15.68;;;8.35;;
69085;SDS011;56186;59.144;37.936;2022-08-30T03:10:22;14.70;;;7.90;;
69085;SDS011;56186;59.144;37.936;2022-08-30T03:12:48;16.15;;;9.20;;
69085;SDS011;56186;59.144;37.936;2022-08-30T03:15:14;15.38;;;8.65;;
69085;SDS011;56186;59.144;37.936;2022-08-30T03:17:41;14.93;;;8.35;;
69085;SDS011;56186;59.144;37.936;2022-08-30T03:20:07;13.20;;;8.43;;
69085;SDS011;56186;59.144;37.936;2022-08-30T03:22:34;13.43;;;8.45;;
69085;SDS011;56186;59.144;37.936;2022-08-30T03:25:00;13.48;;;8.45;;
69085;SDS011;56186;59.144;37.936;2022-08-30T03:27:27;16.90;;;9.20;;
69085;SDS011;56186;59.144;37.936;2022-08-30T03:29:53;13.98;;;8.32;;
69085;SDS011;56186;59.144;37.936;2022-08-30T03:32:20;13.82;;;8.55;;
69085;SDS011;56186;59.144;37.936;2022-08-30T03:34:46;12.23;;;7.68;;
69085;SDS011;56186;59.144;37.936;2022-08-30T03:37:13;14.25;;;8.38;;
69085;SDS011;56186;59.144;37.936;2022-08-30T03:39:39;13.40;;;8.38;;
69085;SDS011;56186;59.144;37.936;2022-08-30T03:42:05;15.68;;;8.35;;
69085;SDS011;56186;59.144;37.936;2022-08-30T03:44:31;13.77;;;8.13;;
69085;SDS011;56186;59.144;37.936;2022-08-30T03:46:57;14.93;;;8.07;;
69085;SDS011;56186;59.144;37.936;2022-08-30T03:49:23;14.55;;;8.35;;
69085;SDS011;56186;59.144;37.936;2022-08-30T03:51:49;13.77;;;7.65;;
69085;SDS011;56186;59.144;37.936;2022-08-30T03:54:16;15.18;;;7.68;;
69085;SDS011;56186;59.144;37.936;2022-08-30T03:56:42;12.55;;;7.90;;
69085;SDS011;56186;59.144;37.936;2022-08-30T03:59:08;13.95;;;7.57;;
69085;SDS011;56186;59.144;37.936;2022-08-30T04:01:35;13.57;;;8.43;;
69085;SDS011;56186;59.144;37.936;2022-08-30T04:04:00;13.70;;;8.07;;
69085;SDS011;56186;59.144;37.936;2022-08-30T04:06:27;15.45;;;8.18;;
69085;SDS011;56186;59.144;37.936;2022-08-30T04:08:53;13.85;;;7.78;;
69085;SDS011;56186;59.144;37.936;2022-08-30T04:11:19;12.90;;;7.70;;
69085;SDS011;56186;59.144;37.936;2022-08-30T04:13:45;11.75;;;7.03;;
69085;SDS011;56186;59.144;37.936;2022-08-30T04:16:13;14.50;;;8.15;;
69085;SDS011;56186;59.144;37.936;2022-08-30T04:18:40;14.15;;;7.55;;
69085;SDS011;56186;59.144;37.936;2022-08-30T04:21:05;14.45;;;8.13;;
69085;SDS011;56186;59.144;37.936;2022-08-30T04:23:31;12.82;;;7.90;;
69085;SDS011;56186;59.144;37.936;2022-08-30T04:25:57;14.30;;;7.60;;
69085;SDS011;56186;59.144;37.936;2022-08-30T04:28:23;14.90;;;7.78;;
69085;SDS011;56186;59.144;37.936;2022-08-30T04:30:49;15.50;;;8.43;;
69085;SDS011;56186;59.144;37.936;2022-08-30T04:33:15;13.68;;;8.05;;
69085;SDS011;56186;59.144;37.936;2022-08-30T04:35:43;13.32;;;7.85;;
69085;SDS011;56186;59.144;37.936;2022-08-30T04:38:11;16.30;;;8.60;;
69085;SDS011;56186;59.144;37.936;2022-08-30T04:40:40;16.30;;;8.82;;
69085;SDS011;56186;59.144;37.936;2022-08-30T04:43:07;13.15;;;7.63;;
69085;SDS011;56186;59.144;37.936;2022-08-30T04:45:34;14.63;;;8.48;;
69085;SDS011;56186;59.144;37.936;2022-08-30T04:48:04;13.25;;;7.60;;
69085;SDS011;56186;59.144;37.936;2022-08-30T04:50:31;15.05;;;7.85;;
69085;SDS011;56186;59.144;37.936;2022-08-30T04:52:57;14.10;;;8.15;;
69085;SDS011;56186;59.144;37.936;2022-08-30T04:55:23;15.20;;;8.80;;
69085;SDS011;56186;59.144;37.936;2022-08-30T04:57:52;15.00;;;8.50;;
69085;SDS011;56186;59.144;37.936;2022-08-30T05:00:18;13.73;;;8.05;;
69085;SDS011;56186;59.144;37.936;2022-08-30T05:02:45;17.10;;;8.02;;
69085;SDS011;56186;59.144;37.936;2022-08-30T05:05:11;15.10;;;8.45;;
69085;SDS011;56186;59.144;37.936;2022-08-30T05:07:56;13.05;;;7.55;;
69085;SDS011;56186;59.144;37.936;2022-08-30T05:10:22;15.55;;;8.23;;
69085;SDS011;56186;59.144;37.936;2022-08-30T05:12:49;14.00;;;8.95;;
69085;SDS011;56186;59.144;37.936;2022-08-30T05:15:15;14.23;;;7.63;;
69085;SDS011;56186;59.144;37.936;2022-08-30T05:17:41;16.13;;;8.30;;
69085;SDS011;56186;59.144;37.936;2022-08-30T05:20:08;15.55;;;8.77;;
69085;SDS011;56186;59.144;37.936;2022-08-30T05:22:36;16.27;;;8.32;;
69085;SDS011;56186;59.144;37.936;2022-08-30T05:25:03;12.93;;;7.80;;
69085;SDS011;56186;59.144;37.936;2022-08-30T05:27:29;15.93;;;8.23;;
69085;SDS011;56186;59.144;37.936;2022-08-30T05:29:55;13.73;;;7.53;;
69085;SDS011;56186;59.144;37.936;2022-08-30T05:32:21;14.82;;;9.02;;
69085;SDS011;56186;59.144;37.936;2022-08-30T05:34:47;12.43;;;7.70;;
69085;SDS011;56186;59.144;37.936;2022-08-30T05:37:16;13.38;;;8.25;;
69085;SDS011;56186;59.144;37.936;2022-08-30T05:39:42;14.00;;;8.60;;
69085;SDS011;56186;59.144;37.936;2022-08-30T05:42:08;15.73;;;8.90;;
69085;SDS011;56186;59.144;37.936;2022-08-30T05:44:34;13.35;;;7.97;;
69085;SDS011;56186;59.144;37.936;2022-08-30T05:47:00;14.55;;;8.93;;
69085;SDS011;56186;59.144;37.936;2022-08-30T05:49:26;17.20;;;9.20;;
69085;SDS011;56186;59.144;37.936;2022-08-30T05:51:52;15.93;;;10.15;;
69085;SDS011;56186;59.144;37.936;2022-08-30T05:54:18;15.65;;;9.48;;
69085;SDS011;56186;59.144;37.936;2022-08-30T05:56:44;20.02;;;10.60;;
69085;SDS011;56186;59.144;37.936;2022-08-30T05:59:10;15.43;;;10.25;;
69085;SDS011;56186;59.144;37.936;2022-08-30T06:01:41;16.50;;;9.85;;
69085;SDS011;56186;59.144;37.936;2022-08-30T06:04:10;14.35;;;9.32;;
69085;SDS011;56186;59.144;37.936;2022-08-30T06:06:38;17.23;;;10.43;;
69085;SDS011;56186;59.144;37.936;2022-08-30T06:09:06;17.92;;;11.05;;
69085;SDS011;56186;59.144;37.936;2022-08-30T06:11:33;14.55;;;9.20;;
69085;SDS011;56186;59.144;37.936;2022-08-30T06:13:59;18.70;;;10.18;;
69085;SDS011;56186;59.144;37.936;2022-08-30T06:16:27;17.08;;;10.30;;
69085;SDS011;56186;59.144;37.936;2022-08-30T06:18:53;15.25;;;9.27;;
69085;SDS011;56186;59.144;37.936;2022-08-30T06:21:21;15.02;;;9.20;;
69085;SDS011;56186;59.144;37.936;2022-08-30T06:23:47;15.07;;;9.38;;
69085;SDS011;56186;59.144;37.936;2022-08-30T06:26:14;16.50;;;9.45;;
69085;SDS011;56186;59.144;37.936;2022-08-30T06:28:40;21.30;;;11.10;;
69085;SDS011;56186;59.144;37.936;2022-08-30T06:31:10;18.60;;;9.65;;
69085;SDS011;56186;59.144;37.936;2022-08-30T06:33:39;16.83;;;10.20;;
69085;SDS011;56186;59.144;37.936;2022-08-30T06:36:05;16.02;;;9.88;;
69085;SDS011;56186;59.144;37.936;2022-08-30T06:38:34;15.98;;;10.02;;
69085;SDS011;56186;59.144;37.936;2022-08-30T06:41:04;14.77;;;9.13;;
69085;SDS011;56186;59.144;37.936;2022-08-30T06:43:31;14.27;;;8.55;;
69085;SDS011;56186;59.144;37.936;2022-08-30T06:46:04;14.43;;;8.48;;
69085;SDS011;56186;59.144;37.936;2022-08-30T06:48:32;14.85;;;9.40;;
69085;SDS011;56186;59.144;37.936;2022-08-30T06:50:58;14.98;;;8.60;;
69085;SDS011;56186;59.144;37.936;2022-08-30T06:53:24;15.07;;;9.20;;
69085;SDS011;56186;59.144;37.936;2022-08-30T06:55:54;16.65;;;9.70;;
69085;SDS011;56186;59.144;37.936;2022-08-30T06:58:26;16.27;;;9.02;;
69085;SDS011;56186;59.144;37.936;2022-08-30T07:00:53;16.13;;;9.02;;
69085;SDS011;56186;59.144;37.936;2022-08-30T07:03:20;14.18;;;8.57;;
69085;SDS011;56186;59.144;37.936;2022-08-30T07:05:46;13.63;;;8.93;;
69085;SDS011;56186;59.144;37.936;2022-08-30T07:08:14;14.05;;;9.10;;
69085;SDS011;56186;59.144;37.936;2022-08-30T07:10:40;13.43;;;9.20;;
69085;SDS011;56186;59.144;37.936;2022-08-30T07:13:07;14.88;;;8.43;;
69085;SDS011;56186;59.144;37.936;2022-08-30T07:15:34;15.55;;;9.23;;
69085;SDS011;56186;59.144;37.936;2022-08-30T07:18:01;14.02;;;9.15;;
69085;SDS011;56186;59.144;37.936;2022-08-30T07:20:45;15.80;;;9.38;;
69085;SDS011;56186;59.144;37.936;2022-08-30T07:23:11;16.40;;;9.18;;
69085;SDS011;56186;59.144;37.936;2022-08-30T07:25:38;14.40;;;9.02;;
69085;SDS011;56186;59.144;37.936;2022-08-30T07:28:06;14.05;;;8.48;;
69085;SDS011;56186;59.144;37.936;2022-08-30T07:30:32;14.00;;;8.70;;
69085;SDS011;56186;59.144;37.936;2022-08-30T07:32:59;16.35;;;9.35;;
69085;SDS011;56186;59.144;37.936;2022-08-30T07:35:25;15.32;;;8.60;;
69085;SDS011;56186;59.144;37.936;2022-08-30T07:37:52;14.30;;;8.77;;
69085;SDS011;56186;59.144;37.936;2022-08-30T07:40:18;14.88;;;8.85;;
69085;SDS011;56186;59.144;37.936;2022-08-30T07:42:44;16.85;;;9.13;;
69085;SDS011;56186;59.144;37.936;2022-08-30T07:45:10;13.82;;;8.80;;
69085;SDS011;56186;59.144;37.936;2022-08-30T07:47:37;15.90;;;9.57;;
69085;SDS011;56186;59.144;37.936;2022-08-30T07:50:04;15.68;;;9.48;;
69085;SDS011;56186;59.144;37.936;2022-08-30T07:54:57;13.88;;;8.80;;
69085;SDS011;56186;59.144;37.936;2022-08-30T07:57:23;15.15;;;9.20;;
69085;SDS011;56186;59.144;37.936;2022-08-30T07:59:50;16.38;;;9.68;;
69085;SDS011;56186;59.144;37.936;2022-08-30T08:02:17;16.17;;;9.35;;
69085;SDS011;56186;59.144;37.936;2022-08-30T08:04:43;15.02;;;8.98;;
69085;SDS011;56186;59.144;37.936;2022-08-30T08:07:09;15.52;;;8.88;;
69085;SDS011;56186;59.144;37.936;2022-08-30T08:09:36;15.73;;;9.27;;
69085;SDS011;56186;59.144;37.936;2022-08-30T08:12:03;14.07;;;8.90;;
69085;SDS011;56186;59.144;37.936;2022-08-30T08:14:31;17.33;;;9.35;;
69085;SDS011;56186;59.144;37.936;2022-08-30T08:16:57;14.00;;;8.93;;
69085;SDS011;56186;59.144;37.936;2022-08-30T08:19:23;15.15;;;8.50;;
69085;SDS011;56186;59.144;37.936;2022-08-30T08:21:49;16.55;;;9.23;;
69085;SDS011;56186;59.144;37.936;2022-08-30T08:24:21;14.50;;;9.60;;
69085;SDS011;56186;59.144;37.936;2022-08-30T08:26:48;12.60;;;8.52;;
69085;SDS011;56186;59.144;37.936;2022-08-30T08:29:14;13.75;;;8.75;;
69085;SDS011;56186;59.144;37.936;2022-08-30T08:31:40;14.10;;;8.68;;
69085;SDS011;56186;59.144;37.936;2022-08-30T08:34:07;13.73;;;8.55;;
69085;SDS011;56186;59.144;37.936;2022-08-30T08:36:34;13.65;;;8.75;;
69085;SDS011;56186;59.144;37.936;2022-08-30T08:39:01;14.73;;;9.65;;
69085;SDS011;56186;59.144;37.936;2022-08-30T08:47:09;15.93;;;9.07;;
69085;SDS011;56186;59.144;37.936;2022-08-30T08:49:46;13.73;;;9.02;;
69085;SDS011;56186;59.144;37.936;2022-08-30T08:52:18;12.68;;;8.82;;
69085;SDS011;56186;59.144;37.936;2022-08-30T08:55:09;14.52;;;9.23;;
69085;SDS011;56186;59.144;37.936;2022-08-30T08:57:37;14.65;;;9.48;;
69085;SDS011;56186;59.144;37.936;2022-08-30T09:00:05;15.32;;;9.00;;
69085;SDS011;56186;59.144;37.936;2022-08-30T09:05:30;14.98;;;8.30;;
69085;SDS011;56186;59.144;37.936;2022-08-30T09:08:02;13.63;;;8.18;;
69085;SDS011;56186;59.144;37.936;2022-08-30T09:10:32;11.95;;;7.60;;
69085;SDS011;56186;59.144;37.936;2022-08-30T09:12:59;13.23;;;8.43;;
69085;SDS011;56186;59.144;37.936;2022-08-30T09:15:28;11.52;;;7.80;;
69085;SDS011;56186;59.144;37.936;2022-08-30T09:18:01;13.00;;;7.93;;
69085;SDS011;56186;59.144;37.936;2022-08-30T09:20:39;14.30;;;8.20;;
69085;SDS011;56186;59.144;37.936;2022-08-30T09:23:19;17.13;;;8.20;;
69085;SDS011;56186;59.144;37.936;2022-08-30T09:26:09;11.88;;;7.70;;
69085;SDS011;56186;59.144;37.936;2022-08-30T09:28:50;12.88;;;7.05;;
69085;SDS011;56186;59.144;37.936;2022-08-30T09:31:22;15.60;;;7.40;;
69085;SDS011;56186;59.144;37.936;2022-08-30T09:33:55;11.13;;;7.32;;
69085;SDS011;56186;59.144;37.936;2022-08-30T09:36:29;10.50;;;6.97;;
69085;SDS011;56186;59.144;37.936;2022-08-30T09:39:02;13.02;;;7.20;;
69085;SDS011;56186;59.144;37.936;2022-08-30T09:41:37;13.07;;;6.88;;
69085;SDS011;56186;59.144;37.936;2022-08-30T09:49:38;13.70;;;8.15;;
69085;SDS011;56186;59.144;37.936;2022-08-30T09:52:16;12.15;;;7.22;;
69085;SDS011;56186;59.144;37.936;2022-08-30T10:00:27;10.73;;;6.45;;
69085;SDS011;56186;59.144;37.936;2022-08-30T10:02:58;12.95;;;7.30;;
69085;SDS011;56186;59.144;37.936;2022-08-30T10:10:52;12.82;;;6.95;;
69085;SDS011;56186;59.144;37.936;2022-08-30T10:21:42;10.82;;;6.93;;
69085;SDS011;56186;59.144;37.936;2022-08-30T10:24:27;11.88;;;7.15;;
69085;SDS011;56186;59.144;37.936;2022-08-30T10:27:10;13.10;;;6.75;;
69085;SDS011;56186;59.144;37.936;2022-08-30T10:29:54;11.57;;;6.72;;
69085;SDS011;56186;59.144;37.936;2022-08-30T10:32:26;13.18;;;7.30;;
69085;SDS011;56186;59.144;37.936;2022-08-30T10:35:14;11.48;;;6.65;;
69085;SDS011;56186;59.144;37.936;2022-08-30T10:40:25;11.85;;;7.07;;
69085;SDS011;56186;59.144;37.936;2022-08-30T10:43:21;11.95;;;6.65;;
69085;SDS011;56186;59.144;37.936;2022-08-30T10:45:52;11.50;;;6.63;;
69085;SDS011;56186;59.144;37.936;2022-08-30T10:48:24;12.55;;;7.18;;
69085;SDS011;56186;59.144;37.936;2022-08-30T10:51:03;11.38;;;6.30;;
69085;SDS011;56186;59.144;37.936;2022-08-30T10:53:51;10.60;;;6.10;;
69085;SDS011;56186;59.144;37.936;2022-08-30T10:56:23;12.52;;;6.78;;
69085;SDS011;56186;59.144;37.936;2022-08-30T10:58:53;10.63;;;6.28;;
69085;SDS011;56186;59.144;37.936;2022-08-30T11:15:31;11.70;;;6.55;;
69085;SDS011;56186;59.144;37.936;2022-08-30T11:45:50;10.25;;;6.30;;
69085;SDS011;56186;59.144;37.936;2022-08-30T11:48:39;10.80;;;5.93;;
69085;SDS011;56186;59.144;37.936;2022-08-30T11:57:19;13.43;;;6.10;;
69085;SDS011;56186;59.144;37.936;2022-08-30T12:00:33;10.80;;;5.85;;
69085;SDS011;56186;59.144;37.936;2022-08-30T12:03:43;10.77;;;5.75;;
69085;SDS011;56186;59.144;37.936;2022-08-30T12:06:05;12.20;;;5.68;;
69085;SDS011;56186;59.144;37.936;2022-08-30T12:11:00;11.52;;;6.38;;
69085;SDS011;56186;59.144;37.936;2022-08-30T12:18:52;9.85;;;5.32;;
69085;SDS011;56186;59.144;37.936;2022-08-30T12:21:28;10.43;;;5.85;;
69085;SDS011;56186;59.144;37.936;2022-08-30T12:24:03;9.55;;;5.88;;
69085;SDS011;56186;59.144;37.936;2022-08-30T12:26:39;12.75;;;5.80;;
69085;SDS011;56186;59.144;37.936;2022-08-30T12:34:22;13.23;;;6.15;;
69085;SDS011;56186;59.144;37.936;2022-08-30T12:37:08;9.75;;;6.30;;
69085;SDS011;56186;59.144;37.936;2022-08-30T12:39:45;13.43;;;5.90;;
69085;SDS011;56186;59.144;37.936;2022-08-30T12:42:16;11.40;;;5.65;;
69085;SDS011;56186;59.144;37.936;2022-08-30T12:44:47;10.75;;;5.80;;
69085;SDS011;56186;59.144;37.936;2022-08-30T12:47:23;10.70;;;5.47;;
69085;SDS011;56186;59.144;37.936;2022-08-30T12:50:09;12.85;;;7.00;;
69085;SDS011;56186;59.144;37.936;2022-08-30T12:52:42;11.27;;;5.53;;
69085;SDS011;56186;59.144;37.936;2022-08-30T12:55:21;11.20;;;5.40;;
69085;SDS011;56186;59.144;37.936;2022-08-30T13:00:32;10.98;;;5.50;;
69085;SDS011;56186;59.144;37.936;2022-08-30T13:05:54;10.25;;;5.90;;
69085;SDS011;56186;59.144;37.936;2022-08-30T13:08:22;10.65;;;5.95;;
69085;SDS011;56186;59.144;37.936;2022-08-30T13:11:02;12.52;;;5.70;;
69085;SDS011;56186;59.144;37.936;2022-08-30T13:13:34;10.98;;;5.50;;
69085;SDS011;56186;59.144;37.936;2022-08-30T13:16:08;9.75;;;5.38;;
69085;SDS011;56186;59.144;37.936;2022-08-30T13:21:59;10.52;;;5.22;;
69085;SDS011;56186;59.144;37.936;2022-08-30T13:24:26;10.15;;;4.90;;
69085;SDS011;56186;59.144;37.936;2022-08-30T13:26:53;13.90;;;5.53;;
69085;SDS011;56186;59.144;37.936;2022-08-30T13:29:23;10.20;;;5.82;;
69085;SDS011;56186;59.144;37.936;2022-08-30T13:31:50;11.48;;;5.57;;
69085;SDS011;56186;59.144;37.936;2022-08-30T13:34:17;11.63;;;6.03;;
69085;SDS011;56186;59.144;37.936;2022-08-30T13:36:51;9.80;;;5.80;;
69085;SDS011;56186;59.144;37.936;2022-08-30T13:39:21;8.88;;;5.40;;
69085;SDS011;56186;59.144;37.936;2022-08-30T13:41:48;8.38;;;4.68;;
69085;SDS011;56186;59.144;37.936;2022-08-30T13:47:06;8.00;;;4.85;;
69085;SDS011;56186;59.144;37.936;2022-08-30T13:49:34;9.20;;;4.60;;
69085;SDS011;56186;59.144;37.936;2022-08-30T13:52:02;8.65;;;4.85;;
69085;SDS011;56186;59.144;37.936;2022-08-30T13:54:29;10.00;;;4.75;;
69085;SDS011;56186;59.144;37.936;2022-08-30T13:56:55;10.65;;;4.63;;
69085;SDS011;56186;59.144;37.936;2022-08-30T13:59:23;8.23;;;4.47;;
69085;SDS011;56186;59.144;37.936;2022-08-30T14:01:50;12.23;;;5.30;;
69085;SDS011;56186;59.144;37.936;2022-08-30T14:04:17;9.88;;;4.63;;
69085;SDS011;56186;59.144;37.936;2022-08-30T14:06:42;9.98;;;4.97;;
69085;SDS011;56186;59.144;37.936;2022-08-30T14:09:08;9.77;;;4.57;;
69085;SDS011;56186;59.144;37.936;2022-08-30T14:11:36;9.60;;;4.70;;
69085;SDS011;56186;59.144;37.936;2022-08-30T14:14:03;9.02;;;4.55;;
69085;SDS011;56186;59.144;37.936;2022-08-30T14:16:29;8.32;;;4.68;;
69085;SDS011;56186;59.144;37.936;2022-08-30T14:19:22;8.60;;;4.38;;
69085;SDS011;56186;59.144;37.936;2022-08-30T14:21:48;8.50;;;4.30;;
69085;SDS011;56186;59.144;37.936;2022-08-30T14:24:14;7.35;;;4.13;;
69085;SDS011;56186;59.144;37.936;2022-08-30T14:26:44;9.30;;;4.75;;
69085;SDS011;56186;59.144;37.936;2022-08-30T14:29:13;10.88;;;4.82;;
69085;SDS011;56186;59.144;37.936;2022-08-30T14:31:41;8.50;;;4.25;;
69085;SDS011;56186;59.144;37.936;2022-08-30T14:34:08;8.02;;;4.25;;
69085;SDS011;56186;59.144;37.936;2022-08-30T14:36:35;8.85;;;4.60;;
69085;SDS011;56186;59.144;37.936;2022-08-30T14:39:06;7.90;;;4.18;;
69085;SDS011;56186;59.144;37.936;2022-08-30T14:41:33;8.90;;;4.30;;
69085;SDS011;56186;59.144;37.936;2022-08-30T14:43:59;8.65;;;4.10;;
69085;SDS011;56186;59.144;37.936;2022-08-30T14:46:25;9.05;;;4.70;;
69085;SDS011;56186;59.144;37.936;2022-08-30T14:48:52;7.80;;;4.15;;
69085;SDS011;56186;59.144;37.936;2022-08-30T14:51:29;8.10;;;4.55;;
69085;SDS011;56186;59.144;37.936;2022-08-30T14:53:55;11.90;;;4.10;;
69085;SDS011;56186;59.144;37.936;2022-08-30T14:56:21;9.88;;;4.70;;
69085;SDS011;56186;59.144;37.936;2022-08-30T14:58:49;10.35;;;4.20;;
69085;SDS011;56186;59.144;37.936;2022-08-30T15:01:16;8.18;;;4.18;;
69085;SDS011;56186;59.144;37.936;2022-08-30T15:03:43;10.82;;;4.40;;
69085;SDS011;56186;59.144;37.936;2022-08-30T15:06:09;8.95;;;4.95;;
69085;SDS011;56186;59.144;37.936;2022-08-30T15:08:35;9.35;;;4.20;;
69085;SDS011;56186;59.144;37.936;2022-08-30T15:11:06;8.30;;;4.28;;
69085;SDS011;56186;59.144;37.936;2022-08-30T15:13:33;7.85;;;4.10;;
69085;SDS011;56186;59.144;37.936;2022-08-30T15:16:00;8.82;;;4.50;;
69085;SDS011;56186;59.144;37.936;2022-08-30T15:18:26;9.55;;;4.10;;
69085;SDS011;56186;59.144;37.936;2022-08-30T15:20:52;8.30;;;4.40;;
69085;SDS011;56186;59.144;37.936;2022-08-30T15:23:18;7.47;;;3.85;;
69085;SDS011;56186;59.144;37.936;2022-08-30T15:25:44;9.60;;;4.47;;
69085;SDS011;56186;59.144;37.936;2022-08-30T15:28:10;7.13;;;4.35;;
69085;SDS011;56186;59.144;37.936;2022-08-30T15:30:35;9.43;;;4.53;;
69085;SDS011;56186;59.144;37.936;2022-08-30T15:33:02;9.35;;;4.60;;
69085;SDS011;56186;59.144;37.936;2022-08-30T15:35:29;7.60;;;3.97;;
69085;SDS011;56186;59.144;37.936;2022-08-30T15:37:55;8.45;;;4.07;;
69085;SDS011;56186;59.144;37.936;2022-08-30T15:40:21;14.55;;;4.63;;
69085;SDS011;56186;59.144;37.936;2022-08-30T15:42:48;9.20;;;4.10;;
69085;SDS011;56186;59.144;37.936;2022-08-30T15:45:14;8.88;;;3.92;;
69085;SDS011;56186;59.144;37.936;2022-08-30T15:47:40;9.88;;;4.32;;
69085;SDS011;56186;59.144;37.936;2022-08-30T15:50:06;8.98;;;4.15;;
69085;SDS011;56186;59.144;37.936;2022-08-30T15:52:33;8.30;;;3.80;;
69085;SDS011;56186;59.144;37.936;2022-08-30T15:54:58;7.70;;;3.42;;
69085;SDS011;56186;59.144;37.936;2022-08-30T15:57:25;7.40;;;3.92;;
69085;SDS011;56186;59.144;37.936;2022-08-30T15:59:51;7.53;;;3.83;;
69085;SDS011;56186;59.144;37.936;2022-08-30T16:02:19;6.35;;;3.47;;
69085;SDS011;56186;59.144;37.936;2022-08-30T16:04:45;7.68;;;4.15;;
69085;SDS011;56186;59.144;37.936;2022-08-30T16:07:11;10.00;;;4.38;;
69085;SDS011;56186;59.144;37.936;2022-08-30T16:09:37;10.10;;;4.60;;
69085;SDS011;56186;59.144;37.936;2022-08-30T16:12:05;10.10;;;4.82;;
69085;SDS011;56186;59.144;37.936;2022-08-30T16:14:32;8.68;;;4.32;;
69085;SDS011;56186;59.144;37.936;2022-08-30T16:17:00;9.63;;;4.20;;
69085;SDS011;56186;59.144;37.936;2022-08-30T16:19:26;10.43;;;3.72;;
69085;SDS011;56186;59.144;37.936;2022-08-30T16:21:52;8.63;;;3.83;;